createdAt,value
2022-11-09T00:00:17.119Z,100346.97
2022-11-09T00:05:20.767Z,100341.78
2022-11-09T00:10:24.414Z,100349.59
2022-11-09T00:15:29.696Z,100347.06
2022-11-09T00:20:33.738Z,100352.37
2022-11-09T00:25:37.417Z,100345.34
2022-11-09T00:30:43.018Z,100359.56
2022-11-09T00:35:46.711Z,100384.25
2022-11-09T00:40:50.542Z,100389.91
2022-11-09T00:45:55.592Z,100390.38
2022-11-09T00:50:59.597Z,100392.28
2022-11-09T00:56:05.996Z,100383.72
2022-11-09T01:01:13.955Z,100384.66
2022-11-09T01:06:20.281Z,100399.31
2022-11-09T01:11:24.852Z,100400.16
2022-11-09T01:16:30.396Z,100384.53
2022-11-09T01:21:34.227Z,100398.06
2022-11-09T01:26:38.277Z,100401.47
2022-11-09T01:31:43.302Z,100402.38
2022-11-09T01:36:47.030Z,100399.69
2022-11-09T01:41:50.710Z,100403.84
2022-11-09T01:46:58.084Z,100414.03
2022-11-09T01:52:06.557Z,100397.72
2022-11-09T01:57:16.958Z,100391.72
2022-11-09T02:02:22.360Z,100399.41
2022-11-09T02:07:26.671Z,100377.84
2022-11-09T02:12:32.850Z,100389.22
2022-11-09T02:17:38.025Z,100387.41
2022-11-09T02:22:43.576Z,100389.28
2022-11-09T02:27:47.570Z,100384.12
2022-11-09T02:32:51.314Z,100393.75
2022-11-09T02:37:56.928Z,100386.09
2022-11-09T02:43:01.815Z,100369.69
2022-11-09T02:48:06.339Z,100367.78
2022-11-09T02:53:13.006Z,100368.19
2022-11-09T02:58:17.801Z,100374.09
2022-11-09T03:03:21.887Z,100381.84
2022-11-09T03:08:28.492Z,100391.34
2022-11-09T03:13:32.590Z,100389.59
2022-11-09T03:18:36.760Z,100382.78
2022-11-09T03:23:42.092Z,100398.12
2022-11-09T03:28:45.846Z,100389.59
2022-11-09T03:33:49.750Z,100404.31
2022-11-09T03:38:54.873Z,100413.63
2022-11-09T03:43:58.787Z,100421.97
2022-11-09T03:49:02.617Z,100432.09
2022-11-09T03:54:07.963Z,100443.87
2022-11-09T03:59:11.647Z,100457.69
2022-11-09T04:04:15.335Z,100470.69
2022-11-09T04:09:20.454Z,100468.66
2022-11-09T04:14:24.235Z,100474.53
2022-11-09T04:19:27.933Z,100478.09
2022-11-09T04:24:33.038Z,100486.59
2022-11-09T04:29:37.691Z,100479.97
2022-11-09T04:34:42.186Z,100479.25
2022-11-09T04:39:47.199Z,100479.00
2022-11-09T04:44:50.887Z,100487.47
2022-11-09T04:49:54.532Z,100496.12
2022-11-09T04:54:59.587Z,100492.81
2022-11-09T05:00:03.652Z,100500.50
2022-11-09T05:05:08.473Z,100504.75
2022-11-09T05:10:13.582Z,100498.41
2022-11-09T05:15:17.343Z,100494.13
2022-11-09T05:20:21.403Z,100500.88
2022-11-09T05:25:26.473Z,100491.47
2022-11-09T05:30:30.331Z,100492.91
2022-11-09T05:35:34.194Z,100495.38
2022-11-09T05:40:39.203Z,100496.00
2022-11-09T05:45:44.063Z,100500.19
2022-11-09T05:50:48.226Z,100493.31
2022-11-09T05:55:53.901Z,100495.63
2022-11-09T06:00:59.789Z,100505.13
2022-11-09T06:06:08.336Z,100495.78
2022-11-09T06:11:22.817Z,100492.25
2022-11-09T06:16:27.433Z,100493.09
2022-11-09T06:21:31.144Z,100507.78
2022-11-09T06:26:36.519Z,100512.91
2022-11-09T06:31:40.357Z,100512.09
2022-11-09T06:36:44.787Z,100518.75
2022-11-09T06:41:49.888Z,100525.47
2022-11-09T06:46:53.613Z,100518.41
2022-11-09T06:51:57.254Z,100520.94
2022-11-09T06:57:02.532Z,100525.34
2022-11-09T07:02:06.443Z,100539.25
2022-11-09T07:07:10.255Z,100538.28
2022-11-09T07:12:15.315Z,100545.22
2022-11-09T07:17:18.981Z,100546.16
2022-11-09T07:22:22.631Z,100563.63
2022-11-09T07:27:28.461Z,100553.41
2022-11-09T07:38:01.299Z,100542.44
2022-11-09T07:43:07.687Z,100553.72
2022-11-09T07:48:14.294Z,100555.59
2022-11-09T07:53:18.411Z,100555.75
2022-11-09T07:58:23.745Z,100559.28
2022-11-09T08:03:27.469Z,100563.97
2022-11-09T08:08:31.350Z,100563.47
2022-11-09T08:13:36.375Z,100559.22
2022-11-09T08:18:40.186Z,100563.78
2022-11-09T08:23:43.857Z,100574.31
2022-11-09T08:28:48.901Z,100582.25
2022-11-09T08:33:52.680Z,100581.47
2022-11-09T08:38:59.183Z,100588.72
2022-11-09T08:44:04.423Z,100597.34
2022-11-09T08:49:08.080Z,100604.53
2022-11-09T08:54:14.034Z,100608.19
2022-11-09T08:59:19.115Z,100602.47
2022-11-09T09:04:22.952Z,100601.91
2022-11-09T09:09:26.648Z,100598.38
2022-11-09T09:14:31.787Z,100601.25
2022-11-09T09:19:35.707Z,100603.13
2022-11-09T09:24:39.468Z,100614.88
2022-11-09T09:29:44.517Z,100610.97
2022-11-09T09:34:48.206Z,100604.44
2022-11-09T09:39:52.143Z,100614.16
2022-11-09T09:45:03.005Z,100634.28
2022-11-09T09:50:13.859Z,100630.84
2022-11-09T09:55:22.784Z,100639.03
2022-11-09T10:00:28.998Z,100635.16
2022-11-09T10:05:45.532Z,100653.94
2022-11-09T10:11:05.891Z,100652.69
2022-11-09T10:16:18.409Z,100653.16
2022-11-09T10:21:36.281Z,100678.03
2022-11-09T10:26:44.106Z,100673.88
2022-11-09T10:31:52.275Z,100669.91
2022-11-09T10:37:02.443Z,100677.28
2022-11-09T10:42:06.117Z,100691.03
2022-11-09T10:47:29.565Z,100675.38
2022-11-09T10:52:51.673Z,100691.22
2022-11-09T10:58:24.724Z,100693.47
2022-11-09T11:03:52.218Z,100702.19
2022-11-09T11:09:21.846Z,100696.53
2022-11-09T11:14:45.253Z,100685.13
2022-11-09T11:20:31.394Z,100691.50
2022-11-09T11:26:05.660Z,100687.09
2022-11-09T11:31:27.879Z,100686.09
2022-11-09T11:37:06.932Z,100689.06
2022-11-09T11:43:06.672Z,100690.50
2022-11-09T11:48:58.899Z,100685.00
2022-11-09T11:54:32.055Z,100686.47
2022-11-09T12:00:10.159Z,100673.47
2022-11-09T12:06:00.664Z,100663.25
2022-11-09T12:11:36.037Z,100675.75
2022-11-09T12:17:07.315Z,100687.87
2022-11-09T12:22:40.570Z,100677.16
2022-11-09T12:28:15.688Z,100695.28
2022-11-09T12:33:45.765Z,100693.81
2022-11-09T12:39:13.010Z,100682.78
2022-11-09T12:44:41.683Z,100689.72
2022-11-09T12:50:04.939Z,100700.12
2022-11-09T12:55:36.718Z,100707.47
2022-11-09T13:01:01.682Z,100712.97
2022-11-09T13:06:26.065Z,100715.53
2022-11-09T13:11:50.716Z,100707.19
2022-11-09T13:17:49.296Z,100716.62
2022-11-09T13:23:59.393Z,100734.56
2022-11-09T13:29:26.638Z,100731.72
2022-11-09T13:34:49.731Z,100746.06
2022-11-09T13:40:45.855Z,100746.09
2022-11-09T13:46:25.962Z,100739.75
2022-11-09T13:51:49.041Z,100747.97
2022-11-09T13:57:12.543Z,100765.66
2022-11-09T14:02:34.533Z,100765.56
2022-11-09T14:07:56.979Z,100761.63
2022-11-09T14:13:41.738Z,100774.12
2022-11-09T14:19:14.682Z,100788.41
2022-11-09T14:24:39.140Z,100787.06
2022-11-09T14:30:02.654Z,100790.38
2022-11-09T14:35:28.364Z,100805.03
2022-11-09T14:40:53.087Z,100796.22
2022-11-09T14:46:20.120Z,100810.94
2022-11-09T14:51:42.249Z,100815.25
2022-11-09T14:57:04.002Z,100815.44
2022-11-09T15:02:27.398Z,100834.50
2022-11-09T15:07:49.649Z,100840.59
2022-11-09T15:13:11.643Z,100843.91
2022-11-09T15:18:37.878Z,100851.28
2022-11-09T15:24:05.746Z,100851.88
2022-11-09T15:29:37.991Z,100865.34
2022-11-09T15:35:01.255Z,100860.06
2022-11-09T15:40:25.757Z,100868.75
2022-11-09T15:45:47.619Z,100872.97
2022-11-09T15:51:11.141Z,100867.47
2022-11-09T15:56:32.994Z,100891.44
2022-11-09T16:01:54.843Z,100893.66
2022-11-09T16:07:18.332Z,100911.81
2022-11-09T16:12:45.291Z,100913.47
2022-11-09T16:18:08.308Z,100916.59
2022-11-09T16:23:31.501Z,100922.22
2022-11-09T16:28:55.642Z,100925.06
2022-11-09T16:34:17.408Z,100932.28
2022-11-09T16:39:40.503Z,100947.47
2022-11-09T16:45:08.777Z,100965.63
2022-11-09T16:50:30.404Z,100971.94
2022-11-09T16:55:53.755Z,100986.22
2022-11-09T17:01:19.249Z,100997.06
2022-11-09T17:06:43.624Z,101008.59
2022-11-09T17:12:07.150Z,101029.59
2022-11-09T17:17:29.302Z,101035.62
2022-11-09T17:22:51.381Z,101045.91
2022-11-09T17:28:14.449Z,101046.00
2022-11-09T17:33:36.156Z,101068.00
2022-11-09T17:38:58.073Z,101072.22
2022-11-09T17:44:21.217Z,101074.44
2022-11-09T17:49:43.127Z,101078.97
2022-11-09T17:55:05.239Z,101090.66
2022-11-09T18:00:28.517Z,101096.81
2022-11-09T18:05:50.277Z,101110.16
2022-11-09T18:11:12.743Z,101115.78
2022-11-09T18:16:35.940Z,101120.56
2022-11-09T18:22:01.183Z,101136.25
2022-11-09T18:27:29.949Z,101143.59
2022-11-09T18:32:53.801Z,101148.19
2022-11-09T18:38:19.946Z,101150.62
2022-11-09T18:43:42.675Z,101159.56
2022-11-09T18:49:10.225Z,101172.63
2022-11-09T18:54:36.351Z,101176.47
2022-11-09T18:59:58.468Z,101175.72
2022-11-09T19:05:21.966Z,101184.16
2022-11-09T19:10:43.684Z,101189.81
2022-11-09T19:16:06.258Z,101195.16
2022-11-09T19:21:38.197Z,101200.69
2022-11-09T19:27:01.597Z,101212.72
2022-11-09T19:32:23.715Z,101217.31
2022-11-09T19:37:46.954Z,101235.28
2022-11-09T19:43:08.782Z,101237.13
2022-11-09T19:48:32.102Z,101248.31
2022-11-09T19:53:57.038Z,101261.09
2022-11-09T19:59:20.864Z,101267.06
2022-11-09T20:04:43.567Z,101275.00
2022-11-09T20:10:09.037Z,101285.94
2022-11-09T20:15:32.971Z,101301.69
2022-11-09T20:20:54.913Z,101310.63
2022-11-09T20:26:18.088Z,101317.25
2022-11-09T20:31:40.532Z,101325.53
2022-11-09T20:37:02.313Z,101341.41
2022-11-09T20:42:25.403Z,101338.56
2022-11-09T20:48:07.518Z,101354.00
2022-11-09T20:53:29.719Z,101363.06
2022-11-09T20:58:53.098Z,101383.84
2022-11-09T21:04:15.126Z,101393.22
2022-11-09T21:09:37.435Z,101389.03
2022-11-09T21:15:00.692Z,101392.63
2022-11-09T21:20:22.327Z,101392.78
2022-11-09T21:26:02.964Z,101400.38
2022-11-09T21:31:26.398Z,101406.03
2022-11-09T21:36:48.199Z,101413.00
2022-11-09T21:42:11.965Z,101412.63
2022-11-09T21:47:35.399Z,101418.62
2022-11-09T21:52:57.134Z,101434.03
2022-11-09T21:58:19.003Z,101424.41
2022-11-09T22:03:42.418Z,101429.28
2022-11-09T22:09:04.627Z,101444.22
2022-11-09T22:14:44.739Z,101454.31
2022-11-09T22:20:27.228Z,101465.91
2022-11-09T22:25:49.191Z,101472.59
2022-11-09T22:31:11.897Z,101471.97
2022-11-09T22:36:35.027Z,101482.09
2022-11-09T22:41:56.821Z,101487.31
2022-11-09T22:47:18.563Z,101489.12
2022-11-09T22:52:41.613Z,101484.66
2022-11-09T22:58:03.166Z,101491.53
2022-11-09T23:03:24.901Z,101491.69
2022-11-09T23:08:48.409Z,101502.31
2022-11-09T23:14:10.779Z,101506.78
2022-11-09T23:19:32.611Z,101523.94
2022-11-09T23:25:12.976Z,101526.97
2022-11-09T23:30:34.958Z,101542.03
2022-11-09T23:35:57.352Z,101541.97
2022-11-09T23:41:20.760Z,101556.28
2022-11-09T23:46:42.732Z,101555.22
2022-11-09T23:52:04.627Z,101579.16
2022-11-09T23:57:29.074Z,101581.75
